sensor_id;sensor_type;location;lat;lon;timestamp;pressure;altitude;pressure_sealevel;temperature;humidity
55171;BME280;41060;47.510;8.680;2023-06-14T00:00:40;96428.59;;;24.03;23.21
55171;BME280;41060;47.510;8.680;2023-06-14T00:03:08;96433.69;;;24.11;23.04
55171;BME280;41060;47.510;8.680;2023-06-14T00:05:35;96431.53;;;24.02;23.50
55171;BME280;41060;47.510;8.680;2023-06-14T00:08:06;96434.19;;;23.84;23.98
55171;BME280;41060;47.510;8.680;2023-06-14T00:10:33;96429.31;;;23.67;23.98
55171;BME280;41060;47.510;8.680;2023-06-14T00:13:00;96421.75;;;23.51;24.13
55171;BME280;41060;47.510;8.680;2023-06-14T00:15:28;96425.72;;;23.49;23.90
55171;BME280;41060;47.510;8.680;2023-06-14T00:17:57;96422.03;;;23.68;23.59
55171;BME280;41060;47.510;8.680;2023-06-14T00:20:25;96423.34;;;23.59;23.62
55171;BME280;41060;47.510;8.680;2023-06-14T00:22:53;96414.75;;;23.44;23.94
55171;BME280;41060;47.510;8.680;2023-06-14T00:25:22;96421.28;;;23.29;24.41
55171;BME280;41060;47.510;8.680;2023-06-14T00:27:48;96426.41;;;23.37;24.44
55171;BME280;41060;47.510;8.680;2023-06-14T00:30:17;96427.19;;;23.20;24.80
55171;BME280;41060;47.510;8.680;2023-06-14T00:32:44;96429.94;;;23.13;24.63
55171;BME280;41060;47.510;8.680;2023-06-14T00:35:12;96424.66;;;23.25;24.65
55171;BME280;41060;47.510;8.680;2023-06-14T00:37:40;96416.22;;;23.39;24.13
55171;BME280;41060;47.510;8.680;2023-06-14T00:40:07;96423.63;;;23.51;23.65
55171;BME280;41060;47.510;8.680;2023-06-14T00:42:33;96400.91;;;23.33;23.54
55171;BME280;41060;47.510;8.680;2023-06-14T00:45:01;96418.00;;;23.52;23.60
55171;BME280;41060;47.510;8.680;2023-06-14T00:47:27;96418.25;;;23.51;23.61
55171;BME280;41060;47.510;8.680;2023-06-14T00:49:57;96397.66;;;23.50;23.29
55171;BME280;41060;47.510;8.680;2023-06-14T00:52:26;96418.28;;;23.69;23.38
55171;BME280;41060;47.510;8.680;2023-06-14T00:54:54;96415.41;;;23.64;23.64
55171;BME280;41060;47.510;8.680;2023-06-14T00:57:21;96422.88;;;23.37;24.01
55171;BME280;41060;47.510;8.680;2023-06-14T00:59:51;96414.06;;;23.23;24.59
55171;BME280;41060;47.510;8.680;2023-06-14T01:02:17;96411.56;;;23.28;24.25
55171;BME280;41060;47.510;8.680;2023-06-14T01:04:46;96418.81;;;23.28;24.90
55171;BME280;41060;47.510;8.680;2023-06-14T01:07:20;96416.75;;;23.23;24.62
55171;BME280;41060;47.510;8.680;2023-06-14T01:09:58;96405.75;;;23.25;24.71
55171;BME280;41060;47.510;8.680;2023-06-14T01:12:33;96408.38;;;23.31;24.83
55171;BME280;41060;47.510;8.680;2023-06-14T01:15:03;96414.63;;;23.32;24.32
55171;BME280;41060;47.510;8.680;2023-06-14T01:17:30;96409.06;;;23.27;24.39
55171;BME280;41060;47.510;8.680;2023-06-14T01:19:58;96418.56;;;23.29;24.21
55171;BME280;41060;47.510;8.680;2023-06-14T01:22:25;96411.75;;;23.27;23.94
55171;BME280;41060;47.510;8.680;2023-06-14T01:24:54;96403.16;;;23.05;24.44
55171;BME280;41060;47.510;8.680;2023-06-14T01:27:22;96420.47;;;22.33;25.41
55171;BME280;41060;47.510;8.680;2023-06-14T01:29:55;96415.19;;;22.00;25.80
55171;BME280;41060;47.510;8.680;2023-06-14T01:32:23;96401.69;;;21.67;26.00
55171;BME280;41060;47.510;8.680;2023-06-14T01:34:52;96411.06;;;21.71;25.87
55171;BME280;41060;47.510;8.680;2023-06-14T01:37:20;96416.03;;;21.88;26.15
55171;BME280;41060;47.510;8.680;2023-06-14T01:39:48;96413.28;;;22.07;25.86
55171;BME280;41060;47.510;8.680;2023-06-14T01:42:17;96405.38;;;22.19;25.68
55171;BME280;41060;47.510;8.680;2023-06-14T01:44:46;96407.84;;;22.20;25.56
55171;BME280;41060;47.510;8.680;2023-06-14T01:47:13;96410.53;;;22.27;25.01
55171;BME280;41060;47.510;8.680;2023-06-14T01:49:40;96409.75;;;22.13;26.21
55171;BME280;41060;47.510;8.680;2023-06-14T01:52:07;96411.03;;;21.98;26.13
55171;BME280;41060;47.510;8.680;2023-06-14T01:54:35;96384.50;;;21.81;26.23
55171;BME280;41060;47.510;8.680;2023-06-14T01:57:03;96407.13;;;21.74;26.37
55171;BME280;41060;47.510;8.680;2023-06-14T01:59:33;96405.25;;;21.74;26.24
55171;BME280;41060;47.510;8.680;2023-06-14T02:02:02;96410.88;;;21.73;25.99
55171;BME280;41060;47.510;8.680;2023-06-14T02:04:29;96410.44;;;21.76;26.81
55171;BME280;41060;47.510;8.680;2023-06-14T02:06:56;96408.38;;;21.71;27.08
55171;BME280;41060;47.510;8.680;2023-06-14T02:09:25;96405.22;;;21.68;26.73
55171;BME280;41060;47.510;8.680;2023-06-14T02:11:51;96410.22;;;21.64;26.73
55171;BME280;41060;47.510;8.680;2023-06-14T02:14:18;96408.97;;;21.60;26.81
55171;BME280;41060;47.510;8.680;2023-06-14T02:16:46;96410.41;;;21.63;27.34
55171;BME280;41060;47.510;8.680;2023-06-14T02:19:15;96408.19;;;21.73;26.92
55171;BME280;41060;47.510;8.680;2023-06-14T02:21:45;96408.75;;;21.81;27.05
55171;BME280;41060;47.510;8.680;2023-06-14T02:24:13;96412.91;;;21.91;26.48
55171;BME280;41060;47.510;8.680;2023-06-14T02:26:42;96409.78;;;22.00;26.28
55171;BME280;41060;47.510;8.680;2023-06-14T02:29:09;96409.38;;;21.90;26.79
55171;BME280;41060;47.510;8.680;2023-06-14T02:31:40;96416.66;;;21.76;26.68
55171;BME280;41060;47.510;8.680;2023-06-14T02:34:08;96417.88;;;21.74;27.18
55171;BME280;41060;47.510;8.680;2023-06-14T02:36:35;96389.91;;;21.42;27.50
55171;BME280;41060;47.510;8.680;2023-06-14T02:39:06;96409.81;;;21.47;27.29
55171;BME280;41060;47.510;8.680;2023-06-14T02:41:35;96412.06;;;21.44;27.87
55171;BME280;41060;47.510;8.680;2023-06-14T02:44:01;96409.78;;;21.54;27.44
55171;BME280;41060;47.510;8.680;2023-06-14T02:46:28;96411.06;;;21.65;27.40
55171;BME280;41060;47.510;8.680;2023-06-14T02:48:55;96411.25;;;21.76;26.68
55171;BME280;41060;47.510;8.680;2023-06-14T02:51:25;96414.75;;;21.90;26.85
55171;BME280;41060;47.510;8.680;2023-06-14T02:53:52;96411.47;;;21.95;26.09
55171;BME280;41060;47.510;8.680;2023-06-14T02:56:19;96392.38;;;21.90;26.49
55171;BME280;41060;47.510;8.680;2023-06-14T02:58:47;96408.31;;;21.98;26.29
55171;BME280;41060;47.510;8.680;2023-06-14T03:01:14;96418.88;;;22.06;26.02
55171;BME280;41060;47.510;8.680;2023-06-14T03:03:46;96423.88;;;22.09;25.75
55171;BME280;41060;47.510;8.680;2023-06-14T03:06:13;96429.44;;;22.20;26.32
55171;BME280;41060;47.510;8.680;2023-06-14T03:08:43;96422.56;;;22.31;26.02
55171;BME280;41060;47.510;8.680;2023-06-14T03:11:13;96422.53;;;22.38;25.98
55171;BME280;41060;47.510;8.680;2023-06-14T03:13:40;96420.47;;;22.40;25.68
55171;BME280;41060;47.510;8.680;2023-06-14T03:16:07;96431.88;;;22.42;25.67
55171;BME280;41060;47.510;8.680;2023-06-14T03:18:34;96436.66;;;22.40;26.03
55171;BME280;41060;47.510;8.680;2023-06-14T03:21:01;96430.06;;;22.22;26.00
55171;BME280;41060;47.510;8.680;2023-06-14T03:23:30;96439.41;;;22.13;26.16
55171;BME280;41060;47.510;8.680;2023-06-14T03:25:59;96441.44;;;22.18;25.99
55171;BME280;41060;47.510;8.680;2023-06-14T03:28:27;96440.22;;;22.20;26.07
55171;BME280;41060;47.510;8.680;2023-06-14T03:30:54;96438.78;;;22.24;26.05
55171;BME280;41060;47.510;8.680;2023-06-14T03:33:21;96440.63;;;22.31;26.23
55171;BME280;41060;47.510;8.680;2023-06-14T03:35:48;96445.16;;;22.37;26.20
55171;BME280;41060;47.510;8.680;2023-06-14T03:38:14;96442.03;;;22.40;26.41
55171;BME280;41060;47.510;8.680;2023-06-14T03:40:42;96452.22;;;22.44;26.24
55171;BME280;41060;47.510;8.680;2023-06-14T03:43:11;96459.47;;;22.44;25.81
55171;BME280;41060;47.510;8.680;2023-06-14T03:45:40;96439.56;;;22.32;26.30
55171;BME280;41060;47.510;8.680;2023-06-14T03:48:08;96459.47;;;22.44;26.09
55171;BME280;41060;47.510;8.680;2023-06-14T03:50:35;96461.53;;;22.48;25.87
55171;BME280;41060;47.510;8.680;2023-06-14T03:53:03;96454.47;;;22.47;26.06
55171;BME280;41060;47.510;8.680;2023-06-14T03:55:30;96464.66;;;22.45;25.75
55171;BME280;41060;47.510;8.680;2023-06-14T03:57:58;96473.59;;;22.39;25.91
55171;BME280;41060;47.510;8.680;2023-06-14T04:00:26;96466.31;;;22.33;26.30
55171;BME280;41060;47.510;8.680;2023-06-14T04:02:53;96463.00;;;22.38;26.14
55171;BME280;41060;47.510;8.680;2023-06-14T04:05:20;96472.75;;;22.45;25.92
55171;BME280;41060;47.510;8.680;2023-06-14T04:07:51;96478.16;;;22.45;26.29
55171;BME280;41060;47.510;8.680;2023-06-14T04:10:21;96488.50;;;22.48;25.95
55171;BME280;41060;47.510;8.680;2023-06-14T04:12:48;96481.25;;;22.49;26.15
55171;BME280;41060;47.510;8.680;2023-06-14T04:15:16;96485.22;;;22.46;26.17
55171;BME280;41060;47.510;8.680;2023-06-14T04:17:44;96487.22;;;22.57;26.29
55171;BME280;41060;47.510;8.680;2023-06-14T04:20:13;96492.59;;;22.64;26.04
55171;BME280;41060;47.510;8.680;2023-06-14T04:22:40;96492.19;;;22.67;26.04
55171;BME280;41060;47.510;8.680;2023-06-14T04:25:09;96492.59;;;22.71;25.83
55171;BME280;41060;47.510;8.680;2023-06-14T04:27:35;96497.34;;;22.75;25.51
55171;BME280;41060;47.510;8.680;2023-06-14T04:30:02;96498.78;;;22.78;25.64
55171;BME280;41060;47.510;8.680;2023-06-14T04:32:30;96506.88;;;22.78;25.71
55171;BME280;41060;47.510;8.680;2023-06-14T04:35:00;96502.34;;;22.72;25.24
55171;BME280;41060;47.510;8.680;2023-06-14T04:37:28;96507.72;;;22.72;25.58
55171;BME280;41060;47.510;8.680;2023-06-14T04:39:56;96510.22;;;22.73;25.14
55171;BME280;41060;47.510;8.680;2023-06-14T04:42:23;96510.03;;;22.75;25.55
55171;BME280;41060;47.510;8.680;2023-06-14T04:44:51;96509.16;;;22.81;25.23
55171;BME280;41060;47.510;8.680;2023-06-14T04:47:22;96507.09;;;22.83;25.14
55171;BME280;41060;47.510;8.680;2023-06-14T04:49:50;96513.50;;;22.88;25.29
55171;BME280;41060;47.510;8.680;2023-06-14T04:52:19;96512.00;;;22.92;25.10
55171;BME280;41060;47.510;8.680;2023-06-14T04:54:46;96513.06;;;22.98;25.00
55171;BME280;41060;47.510;8.680;2023-06-14T04:57:14;96516.13;;;23.01;24.92
55171;BME280;41060;47.510;8.680;2023-06-14T04:59:42;96523.59;;;23.06;24.79
55171;BME280;41060;47.510;8.680;2023-06-14T05:02:10;96517.38;;;23.12;25.10
55171;BME280;41060;47.510;8.680;2023-06-14T05:04:38;96519.63;;;23.15;24.90
55171;BME280;41060;47.510;8.680;2023-06-14T05:07:06;96515.47;;;23.19;24.93
55171;BME280;41060;47.510;8.680;2023-06-14T05:09:38;96508.81;;;23.15;24.85
55171;BME280;41060;47.510;8.680;2023-06-14T05:12:05;96529.75;;;23.26;25.08
55171;BME280;41060;47.510;8.680;2023-06-14T05:14:33;96526.63;;;23.29;24.86
55171;BME280;41060;47.510;8.680;2023-06-14T05:17:03;96529.53;;;23.34;24.75
55171;BME280;41060;47.510;8.680;2023-06-14T05:19:29;96530.34;;;23.35;24.96
55171;BME280;41060;47.510;8.680;2023-06-14T05:21:57;96524.69;;;23.36;25.10
55171;BME280;41060;47.510;8.680;2023-06-14T05:24:23;96529.91;;;23.38;24.75
55171;BME280;41060;47.510;8.680;2023-06-14T05:26:53;96533.63;;;23.37;25.10
55171;BME280;41060;47.510;8.680;2023-06-14T05:29:20;96531.38;;;23.34;24.90
55171;BME280;41060;47.510;8.680;2023-06-14T05:31:49;96532.28;;;23.21;25.08
55171;BME280;41060;47.510;8.680;2023-06-14T05:34:15;96532.91;;;22.33;25.17
55171;BME280;41060;47.510;8.680;2023-06-14T05:36:43;96527.75;;;21.92;25.91
55171;BME280;41060;47.510;8.680;2023-06-14T05:39:09;96531.69;;;21.96;26.34
55171;BME280;41060;47.510;8.680;2023-06-14T05:41:36;96537.00;;;21.43;26.17
55171;BME280;41060;47.510;8.680;2023-06-14T05:44:09;96531.38;;;21.31;27.05
55171;BME280;41060;47.510;8.680;2023-06-14T05:46:38;96538.44;;;21.45;27.16
55171;BME280;41060;47.510;8.680;2023-06-14T05:49:05;96543.94;;;21.85;26.47
55171;BME280;41060;47.510;8.680;2023-06-14T05:51:32;96536.03;;;22.23;25.93
55171;BME280;41060;47.510;8.680;2023-06-14T05:53:58;96543.91;;;22.38;25.76
55171;BME280;41060;47.510;8.680;2023-06-14T05:56:26;96543.91;;;22.31;24.85
55171;BME280;41060;47.510;8.680;2023-06-14T05:58:52;96552.75;;;21.59;25.74
55171;BME280;41060;47.510;8.680;2023-06-14T06:01:20;96560.16;;;21.31;26.29
55171;BME280;41060;47.510;8.680;2023-06-14T06:03:47;96554.38;;;21.27;26.88
55171;BME280;41060;47.510;8.680;2023-06-14T06:06:14;96548.63;;;21.43;25.60
55171;BME280;41060;47.510;8.680;2023-06-14T06:08:41;96562.16;;;21.76;26.15
55171;BME280;41060;47.510;8.680;2023-06-14T06:11:08;96556.59;;;22.17;25.83
55171;BME280;41060;47.510;8.680;2023-06-14T06:13:35;96556.78;;;22.09;24.77
55171;BME280;41060;47.510;8.680;2023-06-14T06:16:04;96556.78;;;22.09;25.79
55171;BME280;41060;47.510;8.680;2023-06-14T06:18:32;96554.09;;;22.42;25.41
55171;BME280;41060;47.510;8.680;2023-06-14T06:20:59;96565.22;;;22.72;25.11
55171;BME280;41060;47.510;8.680;2023-06-14T06:23:26;96528.31;;;22.66;24.86
55171;BME280;41060;47.510;8.680;2023-06-14T06:25:53;96568.69;;;23.06;24.54
55171;BME280;41060;47.510;8.680;2023-06-14T06:28:19;96570.13;;;23.08;24.30
55171;BME280;41060;47.510;8.680;2023-06-14T06:30:46;96572.25;;;22.86;24.58
55171;BME280;41060;47.510;8.680;2023-06-14T06:33:13;96565.16;;;23.05;24.78
55171;BME280;41060;47.510;8.680;2023-06-14T06:35:41;96571.13;;;23.20;24.52
55171;BME280;41060;47.510;8.680;2023-06-14T06:38:08;96560.97;;;23.16;24.40
55171;BME280;41060;47.510;8.680;2023-06-14T06:40:35;96568.91;;;22.97;24.47
55171;BME280;41060;47.510;8.680;2023-06-14T06:43:02;96571.78;;;23.09;24.94
55171;BME280;41060;47.510;8.680;2023-06-14T06:45:29;96573.97;;;23.32;24.70
55171;BME280;41060;47.510;8.680;2023-06-14T06:47:56;96569.88;;;23.23;24.64
55171;BME280;41060;47.510;8.680;2023-06-14T06:50:26;96577.16;;;23.16;24.45
55171;BME280;41060;47.510;8.680;2023-06-14T06:52:53;96572.66;;;22.90;24.60
55171;BME280;41060;47.510;8.680;2023-06-14T06:55:21;96567.44;;;23.01;24.93
55171;BME280;41060;47.510;8.680;2023-06-14T06:57:47;96574.53;;;22.89;25.11
55171;BME280;41060;47.510;8.680;2023-06-14T07:00:15;96577.84;;;22.85;24.80
55171;BME280;41060;47.510;8.680;2023-06-14T07:02:43;96582.09;;;22.61;25.08
55171;BME280;41060;47.510;8.680;2023-06-14T07:05:10;96574.22;;;22.46;25.02
55171;BME280;41060;47.510;8.680;2023-06-14T07:07:37;96575.47;;;22.44;25.49
55171;BME280;41060;47.510;8.680;2023-06-14T07:10:06;96571.72;;;22.38;25.81
55171;BME280;41060;47.510;8.680;2023-06-14T07:12:33;96574.63;;;22.23;26.10
55171;BME280;41060;47.510;8.680;2023-06-14T07:15:06;96573.56;;;22.18;26.50
55171;BME280;41060;47.510;8.680;2023-06-14T07:17:33;96583.53;;;22.31;26.48
55171;BME280;41060;47.510;8.680;2023-06-14T07:20:01;96579.41;;;22.54;26.51
55171;BME280;41060;47.510;8.680;2023-06-14T07:22:38;96584.78;;;22.61;26.18
55171;BME280;41060;47.510;8.680;2023-06-14T07:25:08;96587.72;;;22.46;26.45
55171;BME280;41060;47.510;8.680;2023-06-14T07:27:34;96586.00;;;22.65;25.73
55171;BME280;41060;47.510;8.680;2023-06-14T07:30:02;96588.66;;;22.85;25.74
55171;BME280;41060;47.510;8.680;2023-06-14T07:32:28;96573.75;;;22.76;25.05
55171;BME280;41060;47.510;8.680;2023-06-14T07:34:55;96590.03;;;23.07;25.22
55171;BME280;41060;47.510;8.680;2023-06-14T07:37:22;96587.31;;;23.27;25.16
55171;BME280;41060;47.510;8.680;2023-06-14T07:39:54;96583.88;;;23.45;24.53
55171;BME280;41060;47.510;8.680;2023-06-14T07:42:24;96580.72;;;23.54;24.36
55171;BME280;41060;47.510;8.680;2023-06-14T07:44:52;96591.59;;;23.41;24.89
55171;BME280;41060;47.510;8.680;2023-06-14T07:47:19;96593.03;;;23.50;24.56
55171;BME280;41060;47.510;8.680;2023-06-14T07:49:45;96602.00;;;23.37;25.00
55171;BME280;41060;47.510;8.680;2023-06-14T07:52:12;96601.06;;;23.06;24.77
55171;BME280;41060;47.510;8.680;2023-06-14T07:54:39;96594.78;;;23.25;25.30
55171;BME280;41060;47.510;8.680;2023-06-14T07:57:06;96596.22;;;23.34;25.13
55171;BME280;41060;47.510;8.680;2023-06-14T07:59:35;96589.66;;;23.55;24.80
55171;BME280;41060;47.510;8.680;2023-06-14T08:02:02;96587.88;;;23.42;24.41
55171;BME280;41060;47.510;8.680;2023-06-14T08:04:29;96582.72;;;23.34;24.63
55171;BME280;41060;47.510;8.680;2023-06-14T08:06:56;96586.78;;;23.50;24.41
55171;BME280;41060;47.510;8.680;2023-06-14T08:09:23;96584.78;;;23.70;24.43
55171;BME280;41060;47.510;8.680;2023-06-14T08:11:52;96576.69;;;23.76;24.19
55171;BME280;41060;47.510;8.680;2023-06-14T08:14:19;96579.75;;;23.87;24.45
55171;BME280;41060;47.510;8.680;2023-06-14T08:16:47;96590.03;;;24.03;24.15
55171;BME280;41060;47.510;8.680;2023-06-14T08:19:14;96591.66;;;24.04;24.12
55171;BME280;41060;47.510;8.680;2023-06-14T08:21:42;96583.91;;;24.14;24.50
55171;BME280;41060;47.510;8.680;2023-06-14T08:24:10;96570.38;;;24.14;24.33
55171;BME280;41060;47.510;8.680;2023-06-14T08:26:37;96584.75;;;24.39;24.14
55171;BME280;41060;47.510;8.680;2023-06-14T08:29:05;96584.03;;;24.50;23.68
55171;BME280;41060;47.510;8.680;2023-06-14T08:31:32;96582.38;;;24.49;23.42
55171;BME280;41060;47.510;8.680;2023-06-14T08:34:00;96589.31;;;24.64;23.25
55171;BME280;41060;47.510;8.680;2023-06-14T08:36:27;96597.47;;;24.82;23.17
55171;BME280;41060;47.510;8.680;2023-06-14T08:38:53;96585.88;;;24.93;22.43
55171;BME280;41060;47.510;8.680;2023-06-14T08:41:22;96593.66;;;25.08;22.16
55171;BME280;41060;47.510;8.680;2023-06-14T08:43:50;96589.91;;;25.27;22.65
55171;BME280;41060;47.510;8.680;2023-06-14T08:46:18;96596.69;;;25.36;22.18
55171;BME280;41060;47.510;8.680;2023-06-14T08:48:51;96592.34;;;25.47;21.83
55171;BME280;41060;47.510;8.680;2023-06-14T08:51:20;96571.28;;;25.49;22.01
55171;BME280;41060;47.510;8.680;2023-06-14T08:53:53;96590.50;;;25.77;21.80
55171;BME280;41060;47.510;8.680;2023-06-14T08:56:25;96595.50;;;25.92;21.63
55171;BME280;41060;47.510;8.680;2023-06-14T08:58:53;96584.06;;;25.90;20.95
55171;BME280;41060;47.510;8.680;2023-06-14T09:01:20;96592.59;;;26.05;21.27
55171;BME280;41060;47.510;8.680;2023-06-14T09:03:49;96591.03;;;25.86;21.49
55171;BME280;41060;47.510;8.680;2023-06-14T09:06:16;96587.38;;;25.92;21.42
55171;BME280;41060;47.510;8.680;2023-06-14T09:08:46;96594.97;;;26.01;20.85
55171;BME280;41060;47.510;8.680;2023-06-14T09:11:15;96587.94;;;26.24;21.53
55171;BME280;41060;47.510;8.680;2023-06-14T09:13:44;96595.88;;;26.49;21.16
55171;BME280;41060;47.510;8.680;2023-06-14T09:16:11;96564.25;;;26.42;20.48
55171;BME280;41060;47.510;8.680;2023-06-14T09:18:39;96590.59;;;26.65;20.60
55171;BME280;41060;47.510;8.680;2023-06-14T09:21:09;96587.50;;;26.50;19.86
55171;BME280;41060;47.510;8.680;2023-06-14T09:23:37;96583.47;;;26.29;19.64
55171;BME280;41060;47.510;8.680;2023-06-14T09:26:10;96596.47;;;26.39;19.98
55171;BME280;41060;47.510;8.680;2023-06-14T09:28:41;96581.50;;;26.60;19.93
55171;BME280;41060;47.510;8.680;2023-06-14T09:31:08;96589.28;;;26.79;19.94
55171;BME280;41060;47.510;8.680;2023-06-14T09:33:35;96588.69;;;27.01;19.81
55171;BME280;41060;47.510;8.680;2023-06-14T09:36:03;96583.81;;;27.14;19.09
55171;BME280;41060;47.510;8.680;2023-06-14T09:38:30;96584.53;;;27.21;19.34
55171;BME280;41060;47.510;8.680;2023-06-14T09:40:57;96585.25;;;27.17;18.23
55171;BME280;41060;47.510;8.680;2023-06-14T09:43:26;96581.06;;;27.38;18.54
55171;BME280;41060;47.510;8.680;2023-06-14T09:45:54;96593.94;;;27.42;18.31
55171;BME280;41060;47.510;8.680;2023-06-14T09:48:20;96584.13;;;27.41;18.09
55171;BME280;41060;47.510;8.680;2023-06-14T09:50:50;96589.69;;;27.46;19.04
55171;BME280;41060;47.510;8.680;2023-06-14T09:53:20;96590.91;;;27.67;19.44
55171;BME280;41060;47.510;8.680;2023-06-14T09:55:49;96589.22;;;27.78;18.28
55171;BME280;41060;47.510;8.680;2023-06-14T09:58:20;96591.72;;;27.96;18.41
55171;BME280;41060;47.510;8.680;2023-06-14T10:00:50;96594.41;;;27.79;19.14
55171;BME280;41060;47.510;8.680;2023-06-14T10:03:21;96592.84;;;27.83;17.72
55171;BME280;41060;47.510;8.680;2023-06-14T10:05:52;96597.75;;;27.98;17.79
55171;BME280;41060;47.510;8.680;2023-06-14T10:08:24;96588.06;;;28.02;17.44
55171;BME280;41060;47.510;8.680;2023-06-14T10:10:55;96584.38;;;28.25;17.19
55171;BME280;41060;47.510;8.680;2023-06-14T10:13:22;96589.09;;;28.29;16.41
55171;BME280;41060;47.510;8.680;2023-06-14T10:15:57;96581.56;;;28.36;16.53
55171;BME280;41060;47.510;8.680;2023-06-14T10:18:31;96583.88;;;28.45;17.16
55171;BME280;41060;47.510;8.680;2023-06-14T10:21:05;96569.03;;;28.52;17.08
55171;BME280;41060;47.510;8.680;2023-06-14T10:23:37;96581.44;;;28.77;16.90
55171;BME280;41060;47.510;8.680;2023-06-14T10:26:06;96570.81;;;28.97;16.97
55171;BME280;41060;47.510;8.680;2023-06-14T10:28:37;96571.81;;;28.91;16.58
55171;BME280;41060;47.510;8.680;2023-06-14T10:31:11;96572.69;;;29.13;16.47
55171;BME280;41060;47.510;8.680;2023-06-14T10:33:49;96551.19;;;29.17;16.00
55171;BME280;41060;47.510;8.680;2023-06-14T10:36:27;96577.13;;;29.19;16.41
55171;BME280;41060;47.510;8.680;2023-06-14T10:39:03;96575.06;;;29.09;17.00
55171;BME280;41060;47.510;8.680;2023-06-14T10:41:34;96570.22;;;28.95;16.35
55171;BME280;41060;47.510;8.680;2023-06-14T10:44:33;96577.06;;;29.14;16.52
55171;BME280;41060;47.510;8.680;2023-06-14T10:47:06;96565.06;;;29.15;16.66
55171;BME280;41060;47.510;8.680;2023-06-14T10:49:38;96574.34;;;29.14;15.56
55171;BME280;41060;47.510;8.680;2023-06-14T10:52:08;96575.09;;;29.31;15.62
55171;BME280;41060;47.510;8.680;2023-06-14T10:55:01;96566.19;;;29.36;15.81
55171;BME280;41060;47.510;8.680;2023-06-14T10:57:30;96563.56;;;29.46;16.25
55171;BME280;41060;47.510;8.680;2023-06-14T10:59:58;96565.44;;;29.45;16.15
55171;BME280;41060;47.510;8.680;2023-06-14T11:05:28;96567.28;;;29.62;15.58
55171;BME280;41060;47.510;8.680;2023-06-14T11:08:23;96561.53;;;29.58;16.11
55171;BME280;41060;47.510;8.680;2023-06-14T11:10:59;96576.25;;;29.57;15.91
55171;BME280;41060;47.510;8.680;2023-06-14T11:13:26;96569.34;;;29.71;15.86
55171;BME280;41060;47.510;8.680;2023-06-14T11:15:54;96566.06;;;29.74;15.71
55171;BME280;41060;47.510;8.680;2023-06-14T11:18:24;96564.19;;;29.75;15.19
55171;BME280;41060;47.510;8.680;2023-06-14T11:20:53;96566.75;;;29.86;14.98
55171;BME280;41060;47.510;8.680;2023-06-14T11:23:21;96560.72;;;29.84;14.81
55171;BME280;41060;47.510;8.680;2023-06-14T11:25:49;96556.94;;;29.85;15.05
55171;BME280;41060;47.510;8.680;2023-06-14T11:28:16;96557.75;;;29.86;14.71
55171;BME280;41060;47.510;8.680;2023-06-14T11:30:45;96554.81;;;29.93;15.47
55171;BME280;41060;47.510;8.680;2023-06-14T11:33:16;96557.38;;;30.04;15.52
55171;BME280;41060;47.510;8.680;2023-06-14T11:35:44;96559.03;;;30.05;15.11
55171;BME280;41060;47.510;8.680;2023-06-14T11:38:12;96565.50;;;30.26;15.07
55171;BME280;41060;47.510;8.680;2023-06-14T11:40:39;96558.09;;;30.21;14.64
55171;BME280;41060;47.510;8.680;2023-06-14T11:43:05;96550.66;;;30.49;15.06
55171;BME280;41060;47.510;8.680;2023-06-14T11:45:32;96551.16;;;30.78;14.89
55171;BME280;41060;47.510;8.680;2023-06-14T11:47:59;96558.47;;;30.67;14.29
55171;BME280;41060;47.510;8.680;2023-06-14T11:50:26;96546.84;;;30.87;14.90
55171;BME280;41060;47.510;8.680;2023-06-14T11:52:56;96542.69;;;31.21;13.97
55171;BME280;41060;47.510;8.680;2023-06-14T11:55:25;96528.06;;;31.00;13.87
55171;BME280;41060;47.510;8.680;2023-06-14T11:57:54;96549.69;;;31.02;14.09
55171;BME280;41060;47.510;8.680;2023-06-14T12:00:24;96521.81;;;31.05;13.86
55171;BME280;41060;47.510;8.680;2023-06-14T12:02:54;96535.63;;;31.30;13.77
55171;BME280;41060;47.510;8.680;2023-06-14T12:05:21;96547.94;;;31.38;13.76
55171;BME280;41060;47.510;8.680;2023-06-14T12:07:50;96537.06;;;31.53;13.91
55171;BME280;41060;47.510;8.680;2023-06-14T12:10:20;96536.34;;;31.78;13.89
55171;BME280;41060;47.510;8.680;2023-06-14T12:12:47;96536.34;;;31.78;13.52
55171;BME280;41060;47.510;8.680;2023-06-14T12:15:14;96532.72;;;31.67;12.98
55171;BME280;41060;47.510;8.680;2023-06-14T12:17:42;96509.41;;;31.45;13.50
55171;BME280;41060;47.510;8.680;2023-06-14T12:20:10;96537.16;;;31.78;13.98
55171;BME280;41060;47.510;8.680;2023-06-14T12:22:46;96537.44;;;31.82;13.16
55171;BME280;41060;47.510;8.680;2023-06-14T12:25:26;96543.75;;;31.88;13.33
55171;BME280;41060;47.510;8.680;2023-06-14T12:27:54;96538.81;;;31.80;12.56
55171;BME280;41060;47.510;8.680;2023-06-14T12:30:21;96539.91;;;31.84;13.50
55171;BME280;41060;47.510;8.680;2023-06-14T12:32:48;96525.28;;;31.53;13.46
55171;BME280;41060;47.510;8.680;2023-06-14T12:35:17;96540.09;;;31.57;13.07
55171;BME280;41060;47.510;8.680;2023-06-14T12:37:44;96535.53;;;31.83;13.30
55171;BME280;41060;47.510;8.680;2023-06-14T12:40:11;96536.34;;;31.78;13.27
55171;BME280;41060;47.510;8.680;2023-06-14T12:42:40;96534.97;;;31.91;13.57
55171;BME280;41060;47.510;8.680;2023-06-14T12:45:07;96532.53;;;31.94;13.21
55171;BME280;41060;47.510;8.680;2023-06-14T12:47:34;96544.88;;;32.02;13.83
55171;BME280;41060;47.510;8.680;2023-06-14T12:50:01;96538.56;;;32.11;13.65
55171;BME280;41060;47.510;8.680;2023-06-14T12:52:28;96548.19;;;32.29;13.33
55171;BME280;41060;47.510;8.680;2023-06-14T12:54:55;96542.72;;;32.24;12.91
55171;BME280;41060;47.510;8.680;2023-06-14T12:57:23;96532.00;;;32.07;13.56
55171;BME280;41060;47.510;8.680;2023-06-14T12:59:51;96550.63;;;32.10;12.49
55171;BME280;41060;47.510;8.680;2023-06-14T13:02:19;96554.16;;;32.06;13.08
55171;BME280;41060;47.510;8.680;2023-06-14T13:04:48;96545.13;;;32.05;12.85
55171;BME280;41060;47.510;8.680;2023-06-14T13:07:14;96543.50;;;32.09;12.75
55171;BME280;41060;47.510;8.680;2023-06-14T13:09:41;96544.88;;;32.17;12.82